createdAt,value
2017-08-01T00:00:30.683Z,1010.19
2017-08-01T00:01:43.371Z,1010.25
2017-08-01T00:02:55.329Z,1010.21
2017-08-01T00:04:06.384Z,1010.26
2017-08-01T00:05:15.522Z,1010.26
2017-08-01T00:06:24.587Z,1010.27
2017-08-01T00:07:33.546Z,1010.27
2017-08-01T00:08:42.504Z,1010.26
2017-08-01T00:09:51.510Z,1010.19
2017-08-01T00:11:00.489Z,1010.2
2017-08-01T00:12:09.446Z,1010.14
2017-08-01T00:13:18.479Z,1010.13
2017-08-01T00:14:27.835Z,1010.12
2017-08-01T00:15:36.842Z,1010.07
2017-08-01T00:16:45.853Z,1010.07
2017-08-01T00:17:54.945Z,1010.1
2017-08-01T00:19:04.017Z,1010.09
2017-08-01T00:20:13.103Z,1010.1
2017-08-01T00:21:22.335Z,1010.08
2017-08-01T00:22:31.397Z,1010.12
2017-08-01T00:23:40.356Z,1010.1
2017-08-01T00:24:49.407Z,1010.1
2017-08-01T00:25:58.775Z,1010.11
2017-08-01T00:27:07.808Z,1010.09
2017-08-01T00:28:16.844Z,1010.07
2017-08-01T00:29:25.806Z,1010.07
2017-08-01T00:30:35.107Z,1010.13
2017-08-01T00:31:44.070Z,1010.16
2017-08-01T00:32:53.231Z,1010.2
2017-08-01T00:34:02.309Z,1010.23
2017-08-01T00:35:11.380Z,1010.23
2017-08-01T00:36:20.477Z,1010.22
2017-08-01T00:37:29.855Z,1010.26
2017-08-01T00:38:39.200Z,1010.25
2017-08-01T00:39:48.277Z,1010.28
2017-08-01T00:40:57.307Z,1010.32
2017-08-01T00:42:06.334Z,1010.34
2017-08-01T00:43:15.373Z,1010.35
2017-08-01T00:44:24.501Z,1010.35
2017-08-01T00:45:33.704Z,1010.38
2017-08-01T00:46:42.900Z,1010.37
2017-08-01T00:47:52.012Z,1010.38
2017-08-01T00:49:01.469Z,1010.38
2017-08-01T00:50:10.625Z,1010.33
2017-08-01T00:51:19.743Z,1010.31
2017-08-01T00:52:28.754Z,1010.29
2017-08-01T00:53:37.896Z,1010.33
2017-08-01T00:54:46.879Z,1010.34
2017-08-01T00:55:55.996Z,1010.38
2017-08-01T00:57:05.092Z,1010.36
2017-08-01T00:58:14.583Z,1010.3
2017-08-01T00:59:23.583Z,1010.26
2017-08-01T01:00:32.676Z,1010.24
2017-08-01T01:01:41.639Z,1010.22
2017-08-01T01:02:50.602Z,1010.21
2017-08-01T01:03:59.560Z,1010.17
2017-08-01T01:05:08.551Z,1010.12
2017-08-01T01:06:17.510Z,1010.08
2017-08-01T01:07:26.474Z,1010.08
2017-08-01T01:08:35.432Z,1010.08
2017-08-01T01:09:44.381Z,1010.1
2017-08-01T01:10:53.342Z,1010.11
2017-08-01T01:12:02.306Z,1010.11
2017-08-01T01:13:11.262Z,1010.09
2017-08-01T01:14:20.234Z,1010.07
2017-08-01T01:15:29.190Z,1009.98
2017-08-01T01:16:38.154Z,1010.03
2017-08-01T01:17:47.119Z,1009.96
2017-08-01T01:18:56.082Z,1009.94
2017-08-01T01:20:05.042Z,1009.89
2017-08-01T01:21:14.007Z,1009.83
2017-08-01T01:22:22.974Z,1009.77
2017-08-01T01:23:31.929Z,1009.7
2017-08-01T01:24:40.892Z,1009.68
2017-08-01T01:25:49.853Z,1009.7
2017-08-01T01:26:58.808Z,1009.7
2017-08-01T01:28:07.764Z,1009.75
2017-08-01T01:29:17.046Z,1009.88
2017-08-01T01:30:26.009Z,1010.02
2017-08-01T01:31:34.972Z,1010.1
2017-08-01T01:32:43.943Z,1010.13
2017-08-01T01:33:52.902Z,1010.14
2017-08-01T01:35:01.871Z,1010.05
2017-08-01T01:36:10.845Z,1010.03
2017-08-01T01:37:20.118Z,1010.04
2017-08-01T01:38:29.076Z,1010.07
2017-08-01T01:39:38.032Z,1010.02
2017-08-01T01:40:46.994Z,1010.02
2017-08-01T01:41:55.954Z,1010.01
2017-08-01T01:43:04.907Z,1010.04
2017-08-01T01:44:13.871Z,1010.06
2017-08-01T01:45:22.830Z,1010.05
2017-08-01T01:46:31.796Z,1010.04
2017-08-01T01:47:40.751Z,1010
2017-08-01T01:48:49.714Z,1009.98
2017-08-01T01:49:58.997Z,1009.95
2017-08-01T01:51:07.961Z,1010.02
2017-08-01T01:52:16.922Z,1009.97
2017-08-01T01:53:25.888Z,1009.96
2017-08-01T01:54:34.855Z,1009.89
2017-08-01T01:55:43.809Z,1009.87
2017-08-01T01:56:52.775Z,1009.85
2017-08-01T01:58:02.074Z,1009.83
2017-08-01T01:59:11.048Z,1009.88
2017-08-01T02:00:20.097Z,1009.93
2017-08-01T02:01:29.378Z,1009.99
2017-08-01T02:02:38.426Z,1010.07
2017-08-01T02:03:47.387Z,1010.08
2017-08-01T02:04:56.339Z,1010.13
2017-08-01T02:06:05.305Z,1010.11
2017-08-01T02:07:14.264Z,1010.17
2017-08-01T02:08:23.226Z,1010.18
2017-08-01T02:09:32.187Z,1010.2
2017-08-01T02:10:41.459Z,1010.18
2017-08-01T02:11:50.742Z,1010.16
2017-08-01T02:13:00.023Z,1010.17
2017-08-01T02:14:08.986Z,1010.17
2017-08-01T02:15:18.258Z,1010.17
2017-08-01T02:16:27.542Z,1010.18
2017-08-01T02:17:36.509Z,1010.2
2017-08-01T02:18:45.810Z,1010.18
2017-08-01T02:19:54.763Z,1010.19
2017-08-01T02:21:04.051Z,1010.22
2017-08-01T02:22:13.012Z,1010.21
2017-08-01T02:23:21.977Z,1010.16
2017-08-01T02:24:30.939Z,1010.14
2017-08-01T02:25:39.897Z,1010.16
2017-08-01T02:26:48.849Z,1010.17
2017-08-01T02:27:57.812Z,1010.16
2017-08-01T02:29:06.781Z,1010.13
2017-08-01T02:30:16.060Z,1010.13
2017-08-01T02:31:25.036Z,1010.18
2017-08-01T02:32:33.995Z,1010.25
2017-08-01T02:33:42.955Z,1010.19
2017-08-01T02:34:51.918Z,1010.22
2017-08-01T02:36:00.899Z,1010.25
2017-08-01T02:37:09.951Z,1010.27
2017-08-01T02:38:18.916Z,1010.3
2017-08-01T02:39:27.874Z,1010.29
2017-08-01T02:40:36.839Z,1010.27
2017-08-01T02:41:45.798Z,1010.3
2017-08-01T02:42:54.765Z,1010.37
2017-08-01T02:44:03.725Z,1010.43
2017-08-01T02:45:12.676Z,1010.49
2017-08-01T02:46:21.645Z,1010.41
2017-08-01T02:47:30.606Z,1010.42
2017-08-01T02:48:39.570Z,1010.39
2017-08-01T02:49:48.544Z,1010.35
2017-08-01T02:50:57.500Z,1010.34
2017-08-01T02:52:06.466Z,1010.38
2017-08-01T02:53:15.431Z,1010.5
2017-08-01T02:54:24.387Z,1010.51
2017-08-01T02:55:33.347Z,1010.54
2017-08-01T02:56:42.313Z,1010.56
2017-08-01T02:57:51.272Z,1010.54
2017-08-01T02:59:00.234Z,1010.57
2017-08-01T03:00:09.202Z,1010.62
2017-08-01T03:01:18.162Z,1010.7
2017-08-01T03:02:27.120Z,1010.81
2017-08-01T03:03:36.428Z,1010.94
2017-08-01T03:04:45.388Z,1011.07
2017-08-01T03:05:54.344Z,1011.16
2017-08-01T03:07:03.303Z,1011.22
2017-08-01T03:08:12.287Z,1011.27
2017-08-01T03:09:21.243Z,1011.3
2017-08-01T03:10:30.206Z,1011.36
2017-08-01T03:11:39.166Z,1011.44
2017-08-01T03:12:48.131Z,1011.44
2017-08-01T03:13:57.091Z,1011.43
2017-08-01T03:15:06.050Z,1011.44
2017-08-01T03:16:15.020Z,1011.35
2017-08-01T03:17:24.302Z,1011.26
2017-08-01T03:18:33.256Z,1011.21
2017-08-01T03:19:42.217Z,1011.26
2017-08-01T03:20:51.186Z,1011.29
2017-08-01T03:22:00.443Z,1011.26
2017-08-01T03:23:09.401Z,1011.18
2017-08-01T03:24:18.361Z,1011.01
2017-08-01T03:25:27.326Z,1010.91
2017-08-01T03:26:36.287Z,1010.81
2017-08-01T03:27:45.255Z,1010.87
2017-08-01T03:28:54.216Z,1010.98
2017-08-01T03:30:03.503Z,1011.07
2017-08-01T03:31:12.476Z,1011.15
2017-08-01T03:32:21.769Z,1011.21
2017-08-01T03:33:30.733Z,1011.2
2017-08-01T03:34:39.692Z,1011.23
2017-08-01T03:35:48.657Z,1011.21
2017-08-01T03:36:57.622Z,1011.17
2017-08-01T03:38:06.583Z,1011.17
2017-08-01T03:39:15.576Z,1011.16
2017-08-01T03:40:24.557Z,1011.07
2017-08-01T03:41:33.516Z,1010.99
2017-08-01T03:42:42.482Z,1010.94
2017-08-01T03:43:51.468Z,1010.91
2017-08-01T03:45:00.424Z,1010.9
2017-08-01T03:46:09.398Z,1010.86
2017-08-01T03:47:18.362Z,1010.87
2017-08-01T03:48:27.318Z,1010.87
2017-08-01T03:49:36.271Z,1010.87
2017-08-01T03:50:45.233Z,1010.9
2017-08-01T03:51:54.197Z,1010.93
2017-08-01T03:53:03.491Z,1010.87
2017-08-01T03:54:12.464Z,1010.71
2017-08-01T03:55:21.424Z,1010.61
2017-08-01T03:56:30.398Z,1010.51
2017-08-01T03:57:39.364Z,1010.41
2017-08-01T03:58:48.332Z,1010.38
2017-08-01T03:59:57.292Z,1010.21
2017-08-01T04:01:06.259Z,1010.18
2017-08-01T04:02:15.227Z,1010.14
2017-08-01T04:03:24.188Z,1010.19
2017-08-01T04:04:33.146Z,1010.1
2017-08-01T04:05:42.104Z,1010.08
2017-08-01T04:06:51.070Z,1010.07
2017-08-01T04:08:00.035Z,1010.01
2017-08-01T04:09:08.995Z,1009.96
2017-08-01T04:10:17.967Z,1009.96
2017-08-01T04:11:26.932Z,1010.01
2017-08-01T04:12:35.893Z,1010.07
2017-08-01T04:13:44.855Z,1010.15
2017-08-01T04:14:53.812Z,1010.24
2017-08-01T04:16:02.794Z,1010.22
2017-08-01T04:17:11.765Z,1010.3
2017-08-01T04:18:20.724Z,1010.49
2017-08-01T04:19:29.684Z,1010.74
2017-08-01T04:20:38.644Z,1011.03
2017-08-01T04:21:47.926Z,1011.23
2017-08-01T04:22:56.886Z,1011.35
2017-08-01T04:24:05.845Z,1011.39
2017-08-01T04:25:14.803Z,1011.45
2017-08-01T04:26:23.754Z,1011.66
2017-08-01T04:27:32.721Z,1011.76
2017-08-01T04:28:41.688Z,1011.83
2017-08-01T04:29:50.653Z,1011.84
2017-08-01T04:30:59.627Z,1011.84
2017-08-01T04:32:08.910Z,1011.79
2017-08-01T04:33:17.867Z,1011.76
2017-08-01T04:34:26.849Z,1011.8
2017-08-01T04:35:35.821Z,1011.81
2017-08-01T04:36:44.827Z,1011.96
2017-08-01T04:37:53.788Z,1012.1
2017-08-01T04:39:02.743Z,1012.37
2017-08-01T04:40:11.706Z,1012.48
2017-08-01T04:41:20.665Z,1012.49
2017-08-01T04:42:29.963Z,1012.51
2017-08-01T04:43:38.922Z,1012.54
2017-08-01T04:44:47.878Z,1012.52
2017-08-01T04:45:56.842Z,1012.56
2017-08-01T04:47:05.807Z,1012.59
2017-08-01T04:48:14.761Z,1012.75
2017-08-01T04:49:23.708Z,1012.8
2017-08-01T04:50:32.662Z,1012.79
2017-08-01T04:51:41.624Z,1012.83
2017-08-01T04:52:50.575Z,1012.89
2017-08-01T04:53:59.542Z,1012.99
2017-08-01T04:55:08.501Z,1013.05
2017-08-01T04:56:17.457Z,1013.08
2017-08-01T04:57:26.454Z,1013.15
2017-08-01T04:58:35.410Z,1013.16
2017-08-01T04:59:44.369Z,1013.2
2017-08-01T05:00:53.322Z,1013.19
2017-08-01T05:02:02.280Z,1013.21
2017-08-01T05:03:11.567Z,1013.2
2017-08-01T05:04:20.533Z,1013.16
2017-08-01T05:05:29.496Z,1013.12
2017-08-01T05:06:38.466Z,1013
2017-08-01T05:07:47.421Z,1012.98
2017-08-01T05:08:56.389Z,1013.01
2017-08-01T05:10:05.358Z,1013
2017-08-01T05:11:14.328Z,1013.01
2017-08-01T05:12:23.282Z,1013.03
2017-08-01T05:13:32.238Z,1013.04
2017-08-01T05:14:41.198Z,1013.11
2017-08-01T05:15:50.162Z,1013.25
2017-08-01T05:16:59.442Z,1013.38
2017-08-01T05:18:08.723Z,1013.39
2017-08-01T05:19:17.683Z,1013.32
2017-08-01T05:20:26.648Z,1013.3
2017-08-01T05:21:35.609Z,1013.31
2017-08-01T05:22:44.571Z,1013.26
2017-08-01T05:23:53.515Z,1013.27
2017-08-01T05:25:02.470Z,1013.29
2017-08-01T05:26:11.427Z,1013.37
2017-08-01T05:27:20.387Z,1013.46
2017-08-01T05:28:29.349Z,1013.47
2017-08-01T05:29:38.307Z,1013.49
2017-08-01T05:30:47.261Z,1013.57
2017-08-01T05:31:56.221Z,1013.59
2017-08-01T05:33:05.177Z,1013.62
2017-08-01T05:34:14.125Z,1013.74
2017-08-01T05:35:23.089Z,1013.85
2017-08-01T05:36:32.052Z,1013.85
2017-08-01T05:37:41.007Z,1013.83
2017-08-01T05:38:49.969Z,1013.88
2017-08-01T05:39:58.928Z,1013.93
2017-08-01T05:41:07.886Z,1013.96
2017-08-01T05:42:16.843Z,1014.02
2017-08-01T05:43:25.795Z,1014.11
2017-08-01T05:44:34.773Z,1014.25
2017-08-01T05:45:43.730Z,1014.21
2017-08-01T05:46:52.693Z,1014.28
2017-08-01T05:48:01.665Z,1014.32
2017-08-01T05:49:10.621Z,1014.4
2017-08-01T05:50:19.575Z,1014.33
2017-08-01T05:51:28.530Z,1014.29
2017-08-01T05:52:37.495Z,1014.36
2017-08-01T05:53:46.456Z,1014.43
2017-08-01T05:54:55.438Z,1014.41
2017-08-01T05:56:04.401Z,1014.44
2017-08-01T05:57:13.353Z,1014.47
2017-08-01T05:58:22.312Z,1014.41
2017-08-01T05:59:31.265Z,1014.28
2017-08-01T06:00:40.548Z,1014.14
2017-08-01T06:01:49.513Z,1014.01
2017-08-01T06:02:58.477Z,1013.73
2017-08-01T06:04:07.438Z,1013.43
2017-08-01T06:05:16.389Z,1013.21
2017-08-01T06:06:25.351Z,1013.2
2017-08-01T06:07:34.325Z,1013.19
2017-08-01T06:08:43.600Z,1012.64
2017-08-01T06:09:52.549Z,1012.23
2017-08-01T06:11:01.507Z,1012.28
2017-08-01T06:12:10.465Z,1012.43
2017-08-01T06:13:19.423Z,1012.08
2017-08-01T06:14:28.385Z,1011.69
2017-08-01T06:15:37.335Z,1011.31
2017-08-01T06:16:46.295Z,1011.43
2017-08-01T06:17:55.266Z,1011.74
2017-08-01T06:19:04.221Z,1011.8
2017-08-01T06:20:13.176Z,1011.69
2017-08-01T06:21:22.133Z,1011.47
2017-08-01T06:22:31.097Z,1011.33
2017-08-01T06:23:40.049Z,1011.18
2017-08-01T06:24:49.006Z,1011.03
2017-08-01T06:25:57.965Z,1010.96
2017-08-01T06:27:06.912Z,1011.07
2017-08-01T06:28:16.192Z,1011.18
2017-08-01T06:29:25.150Z,1011.15
2017-08-01T06:30:34.114Z,1011.19
2017-08-01T06:31:43.068Z,1011.23
2017-08-01T06:32:52.023Z,1011.31
2017-08-01T06:34:00.995Z,1011.31
2017-08-01T06:35:09.960Z,1011.27
2017-08-01T06:36:18.916Z,1011.21
2017-08-01T06:37:28.201Z,1011.14
2017-08-01T06:38:37.172Z,1011.2
2017-08-01T06:39:46.125Z,1011.28
2017-08-01T06:40:55.083Z,1011.34
2017-08-01T06:42:04.135Z,1011.33
2017-08-01T06:43:13.088Z,1011.26
2017-08-01T06:44:22.038Z,1011.31
2017-08-01T06:45:31.000Z,1011.3
2017-08-01T06:46:40.290Z,1011.28
2017-08-01T06:47:49.286Z,1011.27
2017-08-01T06:48:58.249Z,1011.16
2017-08-01T06:50:07.212Z,1011.17
2017-08-01T06:51:16.177Z,1011.19
2017-08-01T06:52:25.211Z,1011.17
2017-08-01T06:53:34.198Z,1011.2
2017-08-01T06:54:43.157Z,1011.16
2017-08-01T06:55:52.438Z,1011.1
2017-08-01T06:57:01.391Z,1011.1
2017-08-01T06:58:10.368Z,1011.05
2017-08-01T06:59:19.331Z,1011.05
2017-08-01T07:00:28.284Z,1010.96
2017-08-01T07:01:37.238Z,1011.01
2017-08-01T07:02:46.196Z,1011.05
2017-08-01T07:03:55.161Z,1011.08
2017-08-01T07:05:04.136Z,1011.02
2017-08-01T07:06:13.092Z,1011.04
2017-08-01T07:07:22.054Z,1010.98
2017-08-01T07:08:31.013Z,1010.92
2017-08-01T07:09:39.968Z,1010.94
2017-08-01T07:10:48.923Z,1010.98
2017-08-01T07:11:57.886Z,1010.96
2017-08-01T07:13:06.847Z,1010.93
2017-08-01T07:14:15.811Z,1010.94
2017-08-01T07:15:24.767Z,1010.89
2017-08-01T07:16:33.720Z,1010.81
2017-08-01T07:17:42.682Z,1010.78
2017-08-01T07:18:51.648Z,1010.73
2017-08-01T07:20:00.616Z,1010.68
2017-08-01T07:21:09.575Z,1010.62
2017-08-01T07:22:18.540Z,1010.54
2017-08-01T07:23:27.555Z,1010.59
2017-08-01T07:24:37.143Z,1010.68
2017-08-01T07:25:46.722Z,1010.72
2017-08-01T07:26:55.689Z,1010.71
2017-08-01T07:28:04.650Z,1010.7
2017-08-01T07:29:13.602Z,1010.86
2017-08-01T07:30:22.559Z,1010.77
2017-08-01T07:31:31.519Z,1010.68
2017-08-01T07:32:40.478Z,1010.61
2017-08-01T07:33:49.439Z,1010.53
2017-08-01T07:34:58.399Z,1010.58
2017-08-01T07:36:07.355Z,1010.61
2017-08-01T07:37:16.317Z,1010.66
2017-08-01T07:38:25.269Z,1010.65
2017-08-01T07:39:34.239Z,1010.56
2017-08-01T07:40:43.206Z,1010.5
2017-08-01T07:41:52.170Z,1010.52
2017-08-01T07:43:01.504Z,1010.48
2017-08-01T07:44:11.437Z,1010.49
2017-08-01T07:45:20.479Z,1010.49
2017-08-01T07:46:29.474Z,1010.51
2017-08-01T07:47:38.463Z,1010.46
2017-08-01T07:48:47.525Z,1010.39
2017-08-01T07:49:56.485Z,1010.28
2017-08-01T07:51:05.453Z,1010.17
2017-08-01T07:52:14.490Z,1010.08
2017-08-01T07:53:23.592Z,1010.08
2017-08-01T07:54:32.575Z,1010.01
2017-08-01T07:55:41.683Z,1009.98
2017-08-01T07:56:50.752Z,1009.88
2017-08-01T07:58:00.002Z,1009.74
2017-08-01T07:59:08.965Z,1009.58
2017-08-01T08:00:18.050Z,1009.49
2017-08-01T08:01:27.013Z,1009.42
2017-08-01T08:02:35.975Z,1009.49
2017-08-01T08:03:45.130Z,1009.65
2017-08-01T08:04:54.118Z,1009.76
2017-08-01T08:06:03.174Z,1009.87
2017-08-01T08:07:12.198Z,1009.97
2017-08-01T08:08:21.198Z,1010.02
2017-08-01T08:09:30.156Z,1010.05
2017-08-01T08:10:39.172Z,1010.12
2017-08-01T08:11:48.175Z,1010.16
2017-08-01T08:12:57.159Z,1010.2
2017-08-01T08:14:06.226Z,1010.18
2017-08-01T08:15:15.341Z,1010.19
2017-08-01T08:16:24.314Z,1010.22
2017-08-01T08:17:33.311Z,1010.16
2017-08-01T08:18:42.311Z,1010.12
2017-08-01T08:19:51.399Z,1010.1
2017-08-01T08:21:00.716Z,1010.1
2017-08-01T08:22:09.716Z,1010.1
2017-08-01T08:23:19.096Z,1010.14
2017-08-01T08:24:28.100Z,1010.14
2017-08-01T08:25:37.071Z,1010.06
2017-08-01T08:26:46.155Z,1010.04
2017-08-01T08:27:55.202Z,1010.01
2017-08-01T08:29:04.272Z,1009.97
2017-08-01T08:30:13.236Z,1009.97
2017-08-01T08:31:22.260Z,1009.97
2017-08-01T08:32:31.499Z,1010.01
2017-08-01T08:33:40.575Z,1010.01
2017-08-01T08:34:49.647Z,1010.04
2017-08-01T08:35:58.761Z,1010.02
2017-08-01T08:37:07.918Z,1010
2017-08-01T08:38:16.979Z,1010.04
2017-08-01T08:39:26.283Z,1010.09
2017-08-01T08:40:35.339Z,1010.13
2017-08-01T08:41:44.435Z,1010.14
2017-08-01T08:42:53.504Z,1010.17
2017-08-01T08:44:02.852Z,1010.24
2017-08-01T08:45:11.844Z,1010.28
2017-08-01T08:46:21.016Z,1010.31
2017-08-01T08:47:30.101Z,1010.28
2017-08-01T08:48:39.115Z,1010.3
2017-08-01T08:49:48.202Z,1010.3
2017-08-01T08:50:57.205Z,1010.3
2017-08-01T08:52:06.258Z,1010.31
2017-08-01T08:53:15.401Z,1010.31
2017-08-01T08:54:24.546Z,1010.37
2017-08-01T08:55:33.725Z,1010.39
2017-08-01T08:56:43.026Z,1010.5
2017-08-01T08:57:52.275Z,1010.56
2017-08-01T08:59:01.361Z,1010.6
2017-08-01T09:00:10.572Z,1010.64
2017-08-01T09:01:19.682Z,1010.69
2017-08-01T09:02:28.870Z,1010.62
2017-08-01T09:03:37.954Z,1010.65
2017-08-01T09:04:47.298Z,1010.65
2017-08-01T09:05:56.464Z,1010.7
2017-08-01T09:07:05.750Z,1010.69
2017-08-01T09:08:14.762Z,1010.66
2017-08-01T09:09:23.786Z,1010.7
2017-08-01T09:10:32.908Z,1010.67
2017-08-01T09:11:42.047Z,1010.67
2017-08-01T09:12:51.110Z,1010.71
2017-08-01T09:14:00.170Z,1010.7
2017-08-01T09:15:09.142Z,1010.76
2017-08-01T09:16:18.393Z,1010.77
2017-08-01T09:17:27.466Z,1010.79
2017-08-01T09:18:36.513Z,1010.84
2017-08-01T09:19:45.542Z,1010.87
2017-08-01T09:20:54.547Z,1010.89
2017-08-01T09:22:03.532Z,1010.88
2017-08-01T09:23:12.500Z,1010.82
2017-08-01T09:24:21.544Z,1010.81
2017-08-01T09:25:30.509Z,1010.75
2017-08-01T09:26:39.473Z,1010.72
2017-08-01T09:27:48.448Z,1010.7
2017-08-01T09:28:57.416Z,1010.69
2017-08-01T09:30:06.453Z,1010.66
2017-08-01T09:31:15.717Z,1010.75
2017-08-01T09:32:24.811Z,1010.71
2017-08-01T09:33:33.776Z,1010.71
2017-08-01T09:34:42.848Z,1010.7
2017-08-01T09:35:52.012Z,1010.68
2017-08-01T09:37:00.965Z,1010.7
2017-08-01T09:38:10.015Z,1010.69
2017-08-01T09:39:19.396Z,1010.7
2017-08-01T09:40:28.389Z,1010.62
2017-08-01T09:41:37.352Z,1010.62
2017-08-01T09:42:46.531Z,1010.61
2017-08-01T09:43:55.499Z,1010.67
2017-08-01T09:45:04.491Z,1010.74
2017-08-01T09:46:13.449Z,1010.78
2017-08-01T09:47:22.410Z,1010.83
2017-08-01T09:48:31.367Z,1010.87
2017-08-01T09:49:40.330Z,1010.87
2017-08-01T09:50:49.300Z,1010.86
2017-08-01T09:51:58.269Z,1010.85
2017-08-01T09:53:07.231Z,1010.9
2017-08-01T09:54:16.194Z,1010.93
2017-08-01T09:55:25.157Z,1010.96
2017-08-01T09:56:34.124Z,1010.95
2017-08-01T09:57:43.078Z,1010.96
2017-08-01T09:58:52.038Z,1010.89
2017-08-01T10:00:01.011Z,1010.88
2017-08-01T10:01:09.971Z,1010.92
2017-08-01T10:02:19.086Z,1010.94
2017-08-01T10:03:28.043Z,1010.89
2017-08-01T10:04:37.003Z,1010.84
2017-08-01T10:05:46.297Z,1010.9
2017-08-01T10:06:55.256Z,1010.91
2017-08-01T10:08:04.239Z,1010.9
2017-08-01T10:09:13.193Z,1010.92
2017-08-01T10:10:22.152Z,1010.91
2017-08-01T10:11:31.139Z,1010.97
2017-08-01T10:12:40.101Z,1010.95
2017-08-01T10:13:49.063Z,1010.99
2017-08-01T10:14:58.036Z,1010.99
2017-08-01T10:16:06.999Z,1010.97
2017-08-01T10:17:15.958Z,1010.93
2017-08-01T10:18:24.926Z,1010.97
2017-08-01T10:19:33.891Z,1010.99
2017-08-01T10:20:42.861Z,1011.02
2017-08-01T10:21:51.848Z,1010.99
2017-08-01T10:23:01.134Z,1010.97
2017-08-01T10:24:10.099Z,1010.99
2017-08-01T10:25:19.390Z,1011.07
2017-08-01T10:26:28.355Z,1011.04
2017-08-01T10:27:37.327Z,1011.02
2017-08-01T10:28:46.288Z,1011.05
2017-08-01T10:29:55.254Z,1011
2017-08-01T10:31:04.217Z,1010.96
2017-08-01T10:32:13.204Z,1010.94
2017-08-01T10:33:22.165Z,1010.94
2017-08-01T10:34:31.127Z,1010.88
2017-08-01T10:35:40.178Z,1010.85
2017-08-01T10:36:49.134Z,1010.79
2017-08-01T10:37:58.090Z,1010.74
2017-08-01T10:39:07.377Z,1010.72
2017-08-01T10:40:16.346Z,1010.76
2017-08-01T10:41:25.311Z,1010.72
2017-08-01T10:42:34.273Z,1010.79
2017-08-01T10:43:43.255Z,1010.85
2017-08-01T10:44:52.213Z,1010.75
2017-08-01T10:46:01.185Z,1010.72
2017-08-01T10:47:10.150Z,1010.74
2017-08-01T10:48:19.129Z,1010.8
2017-08-01T10:49:28.093Z,1010.85
2017-08-01T10:50:37.054Z,1010.78
2017-08-01T10:51:46.029Z,1010.78
2017-08-01T10:52:55.000Z,1010.8
2017-08-01T10:54:03.957Z,1010.75
2017-08-01T10:55:12.916Z,1010.82
2017-08-01T10:56:21.879Z,1010.84
2017-08-01T10:57:30.844Z,1010.76
2017-08-01T10:58:39.804Z,1010.75
2017-08-01T10:59:48.926Z,1010.74
2017-08-01T11:00:58.233Z,1010.74
2017-08-01T11:02:07.224Z,1010.71
2017-08-01T11:03:16.234Z,1010.76
2017-08-01T11:04:25.203Z,1010.76
2017-08-01T11:05:34.179Z,1010.85
2017-08-01T11:06:43.139Z,1010.87
2017-08-01T11:07:52.097Z,1010.86
2017-08-01T11:09:01.055Z,1010.83
2017-08-01T11:10:10.016Z,1010.79
2017-08-01T11:11:18.982Z,1010.78
2017-08-01T11:12:27.943Z,1010.81
2017-08-01T11:13:36.920Z,1010.79
2017-08-01T11:14:45.883Z,1010.83
2017-08-01T11:15:54.846Z,1010.83
2017-08-01T11:17:03.813Z,1010.86
2017-08-01T11:18:12.780Z,1010.87
2017-08-01T11:19:21.737Z,1010.85
2017-08-01T11:20:30.735Z,1010.84
2017-08-01T11:21:39.693Z,1010.84
2017-08-01T11:22:48.653Z,1010.89
2017-08-01T11:23:57.612Z,1010.93
2017-08-01T11:25:06.900Z,1010.9
2017-08-01T11:26:15.867Z,1010.9
2017-08-01T11:27:24.824Z,1010.87
2017-08-01T11:28:33.781Z,1010.81
2017-08-01T11:29:42.758Z,1010.73
2017-08-01T11:30:51.728Z,1010.73
2017-08-01T11:32:00.683Z,1010.75
2017-08-01T11:33:09.647Z,1010.68
2017-08-01T11:34:18.620Z,1010.64
2017-08-01T11:35:27.805Z,1010.66
2017-08-01T11:36:36.766Z,1010.68
2017-08-01T11:37:45.725Z,1010.69
2017-08-01T11:38:54.684Z,1010.7
2017-08-01T11:40:03.646Z,1010.65
2017-08-01T11:41:12.642Z,1010.68
2017-08-01T11:42:21.776Z,1010.62
2017-08-01T11:43:30.853Z,1010.65
2017-08-01T11:44:39.904Z,1010.69
2017-08-01T11:45:48.913Z,1010.68
2017-08-01T11:46:57.874Z,1010.74
2017-08-01T11:48:07.356Z,1010.72
2017-08-01T11:49:16.479Z,1010.74
2017-08-01T11:50:25.498Z,1010.78
2017-08-01T11:51:34.468Z,1010.74
2017-08-01T11:52:53.151Z,1010.78
2017-08-01T11:54:17.061Z,1010.74
2017-08-01T11:55:38.448Z,1010.8
2017-08-01T11:56:50.905Z,1010.72
2017-08-01T11:57:59.866Z,1010.71
2017-08-01T11:59:08.836Z,1010.69
2017-08-01T12:00:17.798Z,1010.72
2017-08-01T12:01:26.763Z,1010.74
2017-08-01T12:02:35.723Z,1010.78
2017-08-01T12:03:44.681Z,1010.82
2017-08-01T12:04:53.649Z,1010.8
2017-08-01T12:06:02.618Z,1010.81
2017-08-01T12:07:11.583Z,1010.83
2017-08-01T12:08:20.544Z,1010.78
2017-08-01T12:09:29.506Z,1010.85
2017-08-01T12:10:38.461Z,1010.84
2017-08-01T12:11:47.416Z,1010.86
2017-08-01T12:12:56.383Z,1010.86
2017-08-01T12:14:05.359Z,1010.84
2017-08-01T12:15:14.323Z,1010.81
2017-08-01T12:16:23.291Z,1010.77
2017-08-01T12:17:32.260Z,1010.73
2017-08-01T12:18:41.231Z,1010.65
2017-08-01T12:19:50.200Z,1010.6
2017-08-01T12:20:59.174Z,1010.48
2017-08-01T12:22:08.144Z,1010.46
2017-08-01T12:23:17.429Z,1010.48
2017-08-01T12:24:26.388Z,1010.44
2017-08-01T12:25:35.347Z,1010.43
2017-08-01T12:26:44.310Z,1010.4
2017-08-01T12:27:53.280Z,1010.43
2017-08-01T12:29:02.251Z,1010.42
2017-08-01T12:30:11.212Z,1010.43
2017-08-01T12:31:20.179Z,1010.38
2017-08-01T12:32:29.147Z,1010.4
2017-08-01T12:33:38.123Z,1010.43
2017-08-01T12:34:47.088Z,1010.38
2017-08-01T12:35:56.055Z,1010.41
2017-08-01T12:37:05.029Z,1010.39
2017-08-01T12:38:13.992Z,1010.41
2017-08-01T12:39:22.954Z,1010.41
2017-08-01T12:40:31.910Z,1010.39
2017-08-01T12:41:41.187Z,1010.39
2017-08-01T12:42:50.158Z,1010.38
2017-08-01T12:43:59.132Z,1010.37
2017-08-01T12:45:08.095Z,1010.36
2017-08-01T12:46:17.068Z,1010.31
2017-08-01T12:47:26.028Z,1010.31
2017-08-01T12:48:34.989Z,1010.34
2017-08-01T12:49:43.953Z,1010.31
2017-08-01T12:50:52.910Z,1010.33
2017-08-01T12:52:01.891Z,1010.31
2017-08-01T12:53:11.181Z,1010.31
2017-08-01T12:54:20.139Z,1010.29
2017-08-01T12:55:29.097Z,1010.32
2017-08-01T12:56:38.068Z,1010.27
2017-08-01T12:57:47.034Z,1010.17
2017-08-01T12:58:56.005Z,1010.16
2017-08-01T13:00:04.969Z,1010.13
2017-08-01T13:01:13.949Z,1010.1
2017-08-01T13:02:22.909Z,1010.03
2017-08-01T13:03:31.877Z,1009.98
2017-08-01T13:04:40.840Z,1009.97
2017-08-01T13:05:49.812Z,1009.92
2017-08-01T13:06:58.771Z,1009.9
2017-08-01T13:08:07.740Z,1009.85
2017-08-01T13:09:16.715Z,1009.85
2017-08-01T13:10:25.672Z,1009.84
2017-08-01T13:11:34.634Z,1009.83
2017-08-01T13:12:43.599Z,1009.83
2017-08-01T13:13:52.563Z,1009.79
2017-08-01T13:15:01.525Z,1009.82
2017-08-01T13:16:10.491Z,1009.78
2017-08-01T13:17:19.465Z,1009.7
2017-08-01T13:18:28.427Z,1009.64
2017-08-01T13:19:37.390Z,1009.57
2017-08-01T13:20:46.678Z,1009.56
2017-08-01T13:21:55.650Z,1009.58
2017-08-01T13:23:04.612Z,1009.61
2017-08-01T13:24:13.573Z,1009.62
2017-08-01T13:25:22.541Z,1009.6
2017-08-01T13:26:31.820Z,1009.63
2017-08-01T13:27:40.779Z,1009.57
2017-08-01T13:28:49.735Z,1009.53
2017-08-01T13:29:58.705Z,1009.48
2017-08-01T13:31:07.671Z,1009.5
2017-08-01T13:32:16.630Z,1009.55
2017-08-01T13:33:25.590Z,1009.51
2017-08-01T13:34:34.553Z,1009.42
2017-08-01T13:35:43.522Z,1009.45
2017-08-01T13:36:52.484Z,1009.48
2017-08-01T13:38:01.453Z,1009.47
2017-08-01T13:39:10.410Z,1009.47
2017-08-01T13:40:19.374Z,1009.49
2017-08-01T13:41:28.337Z,1009.51
2017-08-01T13:42:37.294Z,1009.49
2017-08-01T13:43:46.264Z,1009.47
2017-08-01T13:44:55.232Z,1009.46
2017-08-01T13:46:04.200Z,1009.45
2017-08-01T13:47:13.162Z,1009.47
2017-08-01T13:48:22.129Z,1009.51
2017-08-01T13:49:31.094Z,1009.46
2017-08-01T13:50:40.067Z,1009.48
2017-08-01T13:51:49.031Z,1009.47
2017-08-01T13:52:58.340Z,1009.48
2017-08-01T13:54:07.323Z,1009.51
2017-08-01T13:55:16.291Z,1009.56
2017-08-01T13:56:25.255Z,1009.54
2017-08-01T13:57:34.217Z,1009.56
2017-08-01T13:58:43.180Z,1009.59